Time;durP1;ratioP1;P1;durP2;ratioP2;P2;SDS_P1;SDS_P2;PMS_P1;PMS_P2;Temp;Humidity;BMP_temperature;BMP_pressure;BME280_temperature;BME280_humidity;BME280_pressure;Samples;Min_cycle;Max_cycle;Signal;HPM_P1;HPM_P2
2023/07/27 00:00:56;;;;;;;3.13;2.00;;;14.30;99.90;;;;;;4202623;28;20239;-79
2023/07/27 00:02:58;;;;;;;4.53;2.00;;;14.30;99.90;;;;;;4207359;28;20219;-80
2023/07/27 00:05:00;;;;;;;2.50;1.87;;;14.20;99.90;;;;;;4206808;28;20289;-79
2023/07/27 00:07:02;;;;;;;3.63;2.00;;;14.20;99.90;;;;;;4202264;28;20222;-79
2023/07/27 00:09:04;;;;;;;2.67;1.70;;;14.20;99.90;;;;;;4206991;28;20517;-79
2023/07/27 00:11:06;;;;;;;3.50;2.30;;;14.10;99.90;;;;;;4200929;28;20246;-79
2023/07/27 00:13:10;;;;;;;2.20;1.70;;;14.10;99.90;;;;;;4203553;28;20231;-78
2023/07/27 00:15:12;;;;;;;2.57;1.70;;;14.10;99.90;;;;;;4207140;28;20192;-79
2023/07/27 00:17:15;;;;;;;2.10;1.50;;;14.00;99.90;;;;;;4203961;28;20235;-79
2023/07/27 00:19:16;;;;;;;2.30;1.80;;;14.00;99.90;;;;;;4204717;28;20640;-80
2023/07/27 00:21:18;;;;;;;3.20;1.53;;;13.90;99.90;;;;;;4207172;28;20200;-80
2023/07/27 00:23:20;;;;;;;2.40;1.63;;;13.90;99.90;;;;;;4204420;28;20218;-80
2023/07/27 00:25:22;;;;;;;3.70;2.10;;;13.90;99.90;;;;;;4204472;28;20228;-79
2023/07/27 00:27:23;;;;;;;2.97;2.00;;;13.90;99.90;;;;;;4204221;28;20722;-79
2023/07/27 00:29:25;;;;;;;3.67;2.00;;;13.90;99.90;;;;;;4206829;28;20199;-79
2023/07/27 00:31:27;;;;;;;3.07;1.87;;;13.70;99.90;;;;;;4203165;28;20237;-79
2023/07/27 00:33:30;;;;;;;2.77;1.80;;;13.80;99.90;;;;;;4204787;28;20220;-78
2023/07/27 00:35:32;;;;;;;2.90;1.70;;;13.70;99.90;;;;;;4205959;28;20301;-80
2023/07/27 00:37:33;;;;;;;2.30;1.70;;;13.70;99.90;;;;;;4203150;28;20227;-79
2023/07/27 00:39:35;;;;;;;2.23;1.80;;;13.60;99.90;;;;;;4207384;28;20237;-79
2023/07/27 00:41:36;;;;;;;3.57;2.20;;;13.60;99.90;;;;;;4203943;28;20365;-79
2023/07/27 00:43:38;;;;;;;2.23;1.93;;;13.60;99.90;;;;;;4201630;28;20779;-79
2023/07/27 00:45:40;;;;;;;2.50;1.83;;;13.60;99.90;;;;;;4206376;28;20317;-79
2023/07/27 00:47:42;;;;;;;2.97;1.70;;;13.50;99.90;;;;;;4205386;28;20207;-79
2023/07/27 00:49:45;;;;;;;2.97;1.80;;;13.50;99.90;;;;;;4206275;28;20237;-79
2023/07/27 00:51:48;;;;;;;2.50;1.70;;;13.50;99.90;;;;;;4205819;28;20217;-79
2023/07/27 00:53:50;;;;;;;2.90;1.70;;;13.50;99.90;;;;;;4202689;28;20269;-79
2023/07/27 00:55:52;;;;;;;2.17;1.67;;;13.40;99.90;;;;;;4205247;28;20225;-78
2023/07/27 00:57:54;;;;;;;2.30;1.90;;;13.40;99.90;;;;;;4205893;28;20725;-78
2023/07/27 00:59:56;;;;;;;2.80;2.00;;;13.40;99.90;;;;;;4208484;28;20603;-79
2023/07/27 01:01:58;;;;;;;5.80;2.13;;;13.30;99.90;;;;;;4202451;28;20329;-79
2023/07/27 01:04:00;;;;;;;1.73;1.60;;;13.30;99.90;;;;;;4207758;28;20271;-79
2023/07/27 01:06:04;;;;;;;2.47;1.90;;;13.30;99.90;;;;;;4208823;28;20701;-79
2023/07/27 01:08:07;;;;;;;2.93;2.07;;;13.30;99.90;;;;;;4204531;28;20241;-78
2023/07/27 01:10:10;;;;;;;3.57;2.10;;;13.30;99.90;;;;;;4213856;28;20205;-79
2023/07/27 01:12:17;;;;;;;2.63;1.90;;;13.30;99.90;;;;;;4214813;28;20213;-78
2023/07/27 01:14:29;;;;;;;2.70;1.93;;;13.30;99.90;;;;;;4223237;28;20213;-77
2023/07/27 01:16:35;;;;;;;3.77;2.40;;;13.30;99.90;;;;;;4242001;22;21341;-75
2023/07/27 01:18:44;;;;;;;3.53;2.17;;;13.20;99.90;;;;;;4216777;28;20213;-75
2023/07/27 01:20:50;;;;;;;2.57;2.20;;;13.20;99.90;;;;;;4213147;28;20232;-75
2023/07/27 01:23:23;;;;;;;3.73;2.17;;;13.20;99.90;;;;;;4217481;28;20878;-75
2023/07/27 01:25:43;;;;;;;4.43;1.73;;;13.20;99.90;;;;;;4217965;28;20232;-75
2023/07/27 01:27:51;;;;;;;3.17;2.30;;;13.20;99.90;;;;;;4218466;28;20206;-75
2023/07/27 01:30:18;;;;;;;4.33;2.30;;;13.20;99.90;;;;;;4220613;28;20731;-75
2023/07/27 01:32:23;;;;;;;3.23;2.23;;;13.10;99.90;;;;;;4217182;28;20293;-75
2023/07/27 01:34:29;;;;;;;3.63;1.77;;;13.10;99.90;;;;;;4217773;28;20201;-75
2023/07/27 01:36:37;;;;;;;3.03;1.90;;;13.10;99.90;;;;;;4217664;28;20228;-75
2023/07/27 01:38:42;;;;;;;2.73;2.00;;;13.10;99.90;;;;;;4216411;28;20651;-75
2023/07/27 01:40:47;;;;;;;3.50;2.30;;;13.10;99.90;;;;;;4222646;28;20208;-75
2023/07/27 01:42:51;;;;;;;4.57;2.30;;;13.00;99.90;;;;;;4221392;28;20205;-75
2023/07/27 01:44:53;;;;;;;3.13;2.10;;;13.00;99.90;;;;;;4217723;28;20310;-75
2023/07/27 01:46:57;;;;;;;4.10;2.33;;;13.00;99.90;;;;;;4219775;28;20853;-75
2023/07/27 01:49:02;;;;;;;3.13;2.23;;;13.00;99.90;;;;;;4219331;28;20204;-75
2023/07/27 01:51:05;;;;;;;3.07;2.20;;;13.00;99.90;;;;;;4217520;28;20209;-75
2023/07/27 01:53:08;;;;;;;3.10;2.07;;;12.90;99.90;;;;;;4222876;28;20303;-75
2023/07/27 01:55:11;;;;;;;3.23;2.10;;;12.90;99.90;;;;;;4218919;28;20205;-75
2023/07/27 01:57:13;;;;;;;3.30;2.47;;;12.90;99.90;;;;;;4223177;28;20237;-75
2023/07/27 01:59:16;;;;;;;2.93;2.20;;;12.80;99.90;;;;;;4218300;28;20258;-75
2023/07/27 02:01:18;;;;;;;3.73;2.20;;;12.80;99.90;;;;;;4220725;28;20227;-75
2023/07/27 02:03:21;;;;;;;9.37;2.30;;;12.80;99.90;;;;;;4219556;28;20293;-75
2023/07/27 02:05:24;;;;;;;4.07;2.40;;;12.80;99.90;;;;;;4220109;28;20291;-75
2023/07/27 02:07:26;;;;;;;3.67;2.47;;;12.80;99.90;;;;;;4221437;28;20733;-75
2023/07/27 02:09:28;;;;;;;3.23;2.03;;;12.80;99.90;;;;;;4219428;28;20246;-75
2023/07/27 02:11:30;;;;;;;4.87;2.20;;;12.80;99.90;;;;;;4219741;28;20216;-75
2023/07/27 02:13:36;;;;;;;2.90;2.03;;;12.80;99.90;;;;;;4221100;28;20303;-75
2023/07/27 02:15:43;;;;;;;5.33;2.23;;;12.80;99.90;;;;;;4219144;28;20301;-75
2023/07/27 02:17:49;;;;;;;4.10;2.53;;;12.70;99.90;;;;;;4220007;28;20203;-75
2023/07/27 02:19:56;;;;;;;6.20;2.53;;;12.80;99.90;;;;;;4222223;28;20236;-75
2023/07/27 02:22:01;;;;;;;3.80;2.37;;;12.70;99.90;;;;;;4220880;28;20211;-75
2023/07/27 02:24:03;;;;;;;3.77;2.60;;;12.70;99.90;;;;;;4218832;28;20465;-75
2023/07/27 02:26:06;;;;;;;4.00;2.40;;;12.70;99.90;;;;;;4220814;28;20233;-75
2023/07/27 02:28:10;;;;;;;6.30;2.27;;;12.70;99.90;;;;;;4218749;28;20363;-75
2023/07/27 02:30:12;;;;;;;3.43;2.50;;;12.60;99.90;;;;;;4220016;28;20259;-75
2023/07/27 02:32:14;;;;;;;3.27;2.57;;;12.60;99.90;;;;;;4221742;28;20209;-75
2023/07/27 02:34:16;;;;;;;3.07;2.13;;;12.60;99.90;;;;;;4218541;28;20567;-75
2023/07/27 02:36:18;;;;;;;3.87;2.40;;;12.60;99.90;;;;;;4219142;28;20227;-75
2023/07/27 02:38:21;;;;;;;3.03;2.30;;;12.50;99.90;;;;;;4218785;28;20243;-75
2023/07/27 02:40:22;;;;;;;3.70;2.73;;;12.50;99.90;;;;;;4213230;28;20222;-75
2023/07/27 02:42:23;;;;;;;4.10;2.90;;;12.50;99.90;;;;;;4219344;28;20233;-75
2023/07/27 02:44:25;;;;;;;3.53;2.90;;;12.50;99.90;;;;;;4220151;28;20325;-75
2023/07/27 02:46:27;;;;;;;4.37;3.07;;;12.50;99.90;;;;;;4219902;28;20270;-75
2023/07/27 02:48:28;;;;;;;3.10;2.33;;;12.50;99.90;;;;;;4220861;28;20201;-75
2023/07/27 02:50:30;;;;;;;6.17;2.80;;;12.40;99.90;;;;;;4218991;28;20231;-75
2023/07/27 02:52:32;;;;;;;5.27;2.80;;;12.40;99.90;;;;;;4220764;28;20214;-75
2023/07/27 02:54:34;;;;;;;3.67;2.70;;;12.40;99.90;;;;;;4221131;28;20220;-75
2023/07/27 02:56:36;;;;;;;4.93;2.80;;;12.40;99.90;;;;;;4221040;28;20228;-75
2023/07/27 02:58:38;;;;;;;3.13;2.30;;;12.30;99.90;;;;;;4221445;28;20287;-78
2023/07/27 03:00:40;;;;;;;4.63;2.60;;;12.30;99.90;;;;;;4220088;28;20297;-75
2023/07/27 03:02:42;;;;;;;4.13;2.63;;;12.30;99.90;;;;;;4217275;28;20214;-75
2023/07/27 03:04:44;;;;;;;6.13;2.67;;;12.30;99.90;;;;;;4219647;28;20269;-75
2023/07/27 03:06:45;;;;;;;3.70;2.57;;;12.30;99.90;;;;;;4221371;28;20245;-75
2023/07/27 03:08:47;;;;;;;3.77;2.57;;;12.30;99.90;;;;;;4218574;28;20719;-75
2023/07/27 03:10:51;;;;;;;4.03;2.60;;;12.30;99.90;;;;;;4218974;28;20247;-75
2023/07/27 03:12:52;;;;;;;4.60;2.50;;;12.30;99.90;;;;;;4223425;28;20219;-75
2023/07/27 03:14:53;;;;;;;5.10;2.40;;;12.30;99.90;;;;;;4214499;28;20567;-75
2023/07/27 03:16:55;;;;;;;5.13;2.70;;;12.20;99.90;;;;;;4216643;28;20334;-75
2023/07/27 03:18:57;;;;;;;3.90;2.70;;;12.20;99.90;;;;;;4218820;28;20754;-75
2023/07/27 03:21:03;;;;;;;4.10;2.87;;;12.20;99.90;;;;;;4215469;28;20237;-75
2023/07/27 03:23:05;;;;;;;6.20;2.77;;;12.20;99.90;;;;;;4217499;28;20248;-75
2023/07/27 03:25:07;;;;;;;5.70;2.70;;;12.20;99.90;;;;;;4214787;28;20205;-75
2023/07/27 03:27:10;;;;;;;3.80;3.07;;;12.20;99.90;;;;;;4224465;28;20909;-75
2023/07/27 03:29:12;;;;;;;5.93;2.77;;;12.20;99.90;;;;;;4220153;28;20209;-75
2023/07/27 03:31:19;;;;;;;9.03;2.90;;;12.10;99.90;;;;;;4216221;28;20236;-75
2023/07/27 03:33:21;;;;;;;5.63;2.80;;;12.10;99.90;;;;;;4219175;28;20407;-75
2023/07/27 03:35:22;;;;;;;4.23;2.80;;;12.10;99.90;;;;;;4219358;28;20628;-75
2023/07/27 03:37:24;;;;;;;4.57;3.00;;;12.10;99.90;;;;;;4219278;28;20622;-75
2023/07/27 03:39:26;;;;;;;4.00;2.93;;;12.10;99.90;;;;;;4219436;28;20302;-75
2023/07/27 03:41:28;;;;;;;3.70;2.70;;;12.20;99.90;;;;;;4218772;28;20205;-75
2023/07/27 03:43:30;;;;;;;5.77;2.67;;;12.10;99.90;;;;;;4221291;28;20208;-75
2023/07/27 03:45:32;;;;;;;4.47;3.00;;;12.10;99.90;;;;;;4219631;28;20211;-75
2023/07/27 03:47:34;;;;;;;3.43;2.87;;;12.10;99.90;;;;;;4217863;28;20326;-75
2023/07/27 03:49:36;;;;;;;5.03;2.93;;;12.10;99.90;;;;;;4220218;28;20318;-75
2023/07/27 03:51:38;;;;;;;4.30;3.00;;;12.20;99.90;;;;;;4221207;28;20204;-75
2023/07/27 03:53:39;;;;;;;5.60;3.00;;;12.20;99.90;;;;;;4221861;28;20553;-75
2023/07/27 03:55:41;;;;;;;4.23;2.90;;;12.20;99.90;;;;;;4220467;28;20234;-75
2023/07/27 03:57:43;;;;;;;4.53;2.87;;;12.30;99.90;;;;;;4220300;28;20646;-75
2023/07/27 03:59:46;;;;;;;3.90;2.87;;;12.30;99.90;;;;;;4216781;28;20665;-75
2023/07/27 04:01:48;;;;;;;3.50;2.87;;;12.30;99.90;;;;;;4216630;28;20200;-75
2023/07/27 04:03:50;;;;;;;4.27;2.97;;;12.40;99.90;;;;;;4216803;28;20204;-75
2023/07/27 04:05:53;;;;;;;4.70;2.50;;;12.40;99.90;;;;;;4221297;28;20263;-75
2023/07/27 04:07:54;;;;;;;4.00;2.77;;;12.50;99.90;;;;;;4218527;28;20615;-75
2023/07/27 04:09:58;;;;;;;5.93;3.10;;;12.60;99.90;;;;;;4215018;28;20669;-75
2023/07/27 04:12:00;;;;;;;5.53;2.73;;;12.60;99.90;;;;;;4217767;28;20205;-75
2023/07/27 04:14:05;;;;;;;4.47;2.70;;;12.60;99.90;;;;;;4220453;28;20219;-75
2023/07/27 04:16:08;;;;;;;5.40;2.83;;;12.70;99.90;;;;;;4208559;28;20605;-75
2023/07/27 04:18:10;;;;;;;6.43;2.70;;;12.70;99.90;;;;;;4223463;28;20234;-75
2023/07/27 04:20:12;;;;;;;4.37;3.17;;;12.80;99.90;;;;;;4219931;28;20251;-75
2023/07/27 04:22:14;;;;;;;5.03;2.73;;;12.80;99.90;;;;;;4219686;28;20203;-75
2023/07/27 04:24:16;;;;;;;4.47;2.53;;;12.80;99.90;;;;;;4220191;28;20209;-75
2023/07/27 04:26:18;;;;;;;4.63;2.60;;;12.80;99.90;;;;;;4215415;28;20324;-75
2023/07/27 04:28:19;;;;;;;4.23;2.40;;;12.80;99.90;;;;;;4219769;28;20209;-75
2023/07/27 04:30:21;;;;;;;3.33;2.53;;;12.80;99.90;;;;;;4221387;28;20644;-75
2023/07/27 04:32:24;;;;;;;6.60;3.10;;;12.80;99.90;;;;;;4215862;28;20259;-75
2023/07/27 04:34:25;;;;;;;3.10;2.40;;;12.90;99.90;;;;;;4216442;28;20304;-75
2023/07/27 04:36:27;;;;;;;4.73;2.80;;;12.90;99.90;;;;;;4213842;28;20228;-75
2023/07/27 04:38:29;;;;;;;6.83;3.17;;;12.90;99.90;;;;;;4221169;28;20306;-75
2023/07/27 04:40:31;;;;;;;4.73;2.80;;;13.00;99.90;;;;;;4220496;28;20214;-75
2023/07/27 04:42:33;;;;;;;3.43;2.20;;;13.00;99.90;;;;;;4217617;28;20219;-75
2023/07/27 04:44:35;;;;;;;4.23;2.60;;;13.10;99.90;;;;;;4218298;28;20255;-75
2023/07/27 04:46:38;;;;;;;4.30;2.40;;;13.10;99.90;;;;;;4219632;28;20235;-75
2023/07/27 04:48:42;;;;;;;5.30;2.70;;;13.20;99.90;;;;;;4216435;28;20209;-75
2023/07/27 04:50:44;;;;;;;5.27;2.80;;;13.30;99.90;;;;;;4219953;28;20219;-75
2023/07/27 04:52:45;;;;;;;3.47;2.43;;;13.30;99.90;;;;;;4217363;28;20214;-75
2023/07/27 04:54:47;;;;;;;4.37;2.40;;;13.40;99.90;;;;;;4220397;28;20783;-75
2023/07/27 04:56:49;;;;;;;3.47;2.40;;;13.40;99.90;;;;;;4220927;28;20228;-75
2023/07/27 04:58:51;;;;;;;4.67;2.67;;;13.50;99.90;;;;;;4218708;28;20236;-75
2023/07/27 05:00:54;;;;;;;3.47;2.33;;;13.50;99.90;;;;;;4219171;28;20772;-75
2023/07/27 05:02:58;;;;;;;3.87;2.33;;;13.50;99.90;;;;;;4216713;28;20287;-75
2023/07/27 05:05:01;;;;;;;4.37;2.57;;;13.60;99.90;;;;;;4219251;28;20206;-75
2023/07/27 05:07:03;;;;;;;4.80;2.50;;;13.70;99.90;;;;;;4216645;28;20265;-75
2023/07/27 05:09:06;;;;;;;4.30;2.63;;;13.70;99.90;;;;;;4219308;28;20217;-75
2023/07/27 05:11:07;;;;;;;5.47;2.60;;;13.70;99.90;;;;;;4221288;28;20300;-74
2023/07/27 05:13:09;;;;;;;4.23;2.60;;;13.70;99.90;;;;;;4221085;28;20651;-75
2023/07/27 05:15:11;;;;;;;3.27;2.30;;;13.80;99.90;;;;;;4225830;28;20310;-75
2023/07/27 05:17:13;;;;;;;4.00;2.50;;;13.80;99.90;;;;;;4225577;28;20328;-75
2023/07/27 05:19:14;;;;;;;5.07;2.70;;;13.90;99.90;;;;;;4215226;28;20211;-75
2023/07/27 05:21:18;;;;;;;3.60;2.50;;;13.90;99.90;;;;;;4221569;28;20721;-75
2023/07/27 05:23:20;;;;;;;5.80;2.90;;;13.80;99.90;;;;;;4220203;28;20592;-75
2023/07/27 05:25:22;;;;;;;3.60;2.40;;;14.00;99.90;;;;;;4219815;28;20800;-75
2023/07/27 05:27:24;;;;;;;11.53;2.80;;;14.00;99.90;;;;;;4220925;28;20221;-75
2023/07/27 05:29:26;;;;;;;4.70;2.57;;;14.10;99.90;;;;;;4218979;28;20239;-75
2023/07/27 05:31:28;;;;;;;3.87;2.50;;;14.10;99.90;;;;;;4222051;28;20210;-76
2023/07/27 05:33:32;;;;;;;3.43;2.40;;;14.10;99.90;;;;;;4218589;28;20228;-75
2023/07/27 05:35:35;;;;;;;6.97;2.57;;;14.20;99.90;;;;;;4222206;28;20216;-75
2023/07/27 05:37:40;;;;;;;3.27;2.40;;;14.20;99.90;;;;;;4222096;28;20203;-75
2023/07/27 05:39:42;;;;;;;2.97;2.20;;;14.30;99.90;;;;;;4222885;28;21085;-75
2023/07/27 05:41:45;;;;;;;3.27;2.13;;;14.30;99.90;;;;;;4221403;28;20272;-75
2023/07/27 05:43:47;;;;;;;3.27;2.07;;;14.30;99.90;;;;;;4219492;28;20305;-75
2023/07/27 05:45:51;;;;;;;5.83;2.93;;;14.40;99.90;;;;;;4222940;28;20314;-75
2023/07/27 05:47:53;;;;;;;4.40;2.70;;;14.50;99.90;;;;;;4221913;28;20252;-75
2023/07/27 05:49:55;;;;;;;4.40;2.30;;;14.50;99.90;;;;;;4219627;28;20219;-75
2023/07/27 05:51:57;;;;;;;9.13;5.10;;;14.60;99.90;;;;;;4219195;28;20219;-75
2023/07/27 05:54:00;;;;;;;4.90;3.03;;;14.60;99.90;;;;;;4219906;28;20248;-75
2023/07/27 05:56:01;;;;;;;3.10;2.10;;;14.70;99.90;;;;;;4216316;28;20888;-76
2023/07/27 05:58:03;;;;;;;3.17;2.10;;;14.70;99.90;;;;;;4221462;28;20210;-76
2023/07/27 06:00:07;;;;;;;4.27;2.30;;;14.70;99.90;;;;;;4221237;28;20208;-75
2023/07/27 06:02:09;;;;;;;4.10;2.17;;;14.70;99.90;;;;;;4211899;28;20211;-75
2023/07/27 06:04:11;;;;;;;3.33;2.27;;;14.80;99.90;;;;;;4217044;28;20223;-75
2023/07/27 06:06:13;;;;;;;4.87;2.13;;;14.80;99.90;;;;;;4219605;28;20224;-75
2023/07/27 06:08:15;;;;;;;3.50;2.40;;;14.90;99.90;;;;;;4217718;28;20225;-75
2023/07/27 06:10:18;;;;;;;3.40;2.20;;;15.00;99.90;;;;;;4217704;28;20216;-75
2023/07/27 06:12:20;;;;;;;4.30;2.43;;;15.00;99.90;;;;;;4219990;28;20339;-76
2023/07/27 06:14:22;;;;;;;4.77;2.40;;;15.10;99.90;;;;;;4223405;28;20225;-76
2023/07/27 06:16:24;;;;;;;3.97;2.40;;;15.20;99.90;;;;;;4218448;28;20234;-76
2023/07/27 06:18:26;;;;;;;4.07;2.13;;;15.20;99.90;;;;;;4218762;28;20220;-76
2023/07/27 06:20:29;;;;;;;3.73;1.93;;;15.30;99.90;;;;;;4218150;28;20224;-76
2023/07/27 06:22:31;;;;;;;3.03;1.93;;;15.40;99.90;;;;;;4216850;28;20550;-76
2023/07/27 06:24:33;;;;;;;2.67;1.70;;;15.50;99.90;;;;;;4221632;28;20221;-76
2023/07/27 06:26:36;;;;;;;3.47;2.20;;;15.50;99.90;;;;;;4216426;28;20232;-75
2023/07/27 06:28:38;;;;;;;5.40;1.90;;;15.50;99.90;;;;;;4220169;28;20225;-76
2023/07/27 06:30:40;;;;;;;2.10;1.77;;;15.70;99.90;;;;;;4217931;28;20299;-75
2023/07/27 06:32:42;;;;;;;2.83;2.10;;;15.70;99.90;;;;;;4222707;28;20205;-75
2023/07/27 06:34:44;;;;;;;3.67;1.90;;;15.80;99.90;;;;;;4216906;28;20216;-75
2023/07/27 06:36:46;;;;;;;2.53;1.90;;;15.80;99.90;;;;;;4220210;28;20706;-75
2023/07/27 06:38:51;;;;;;;3.20;2.13;;;15.80;99.90;;;;;;4218551;28;20306;-75
2023/07/27 06:40:53;;;;;;;6.13;2.27;;;15.90;99.90;;;;;;4217961;28;20198;-76
2023/07/27 06:42:56;;;;;;;2.70;1.97;;;15.90;99.90;;;;;;4221253;28;20204;-76
2023/07/27 06:44:58;;;;;;;6.97;2.20;;;16.00;99.90;;;;;;4220127;28;20292;-76
2023/07/27 06:47:00;;;;;;;6.23;2.40;;;16.10;99.90;;;;;;4217721;28;20313;-75
2023/07/27 06:49:02;;;;;;;4.00;2.20;;;16.10;99.90;;;;;;4220828;28;20205;-75
2023/07/27 06:51:04;;;;;;;4.53;2.10;;;16.20;99.90;;;;;;4217255;28;20307;-75
2023/07/27 06:53:05;;;;;;;5.23;2.30;;;16.30;99.90;;;;;;4218558;28;20248;-76
2023/07/27 06:55:08;;;;;;;4.00;2.07;;;16.40;99.90;;;;;;4218176;28;20209;-76
2023/07/27 06:57:11;;;;;;;3.43;1.80;;;16.30;99.90;;;;;;4219012;28;20225;-76
2023/07/27 06:59:15;;;;;;;5.20;2.07;;;16.50;99.90;;;;;;4217450;28;20219;-76
2023/07/27 07:01:16;;;;;;;7.83;2.40;;;16.50;99.90;;;;;;4218148;28;20224;-76
2023/07/27 07:03:19;;;;;;;6.73;3.37;;;16.50;99.90;;;;;;4220848;28;21000;-76
2023/07/27 07:05:20;;;;;;;5.67;3.10;;;16.60;99.90;;;;;;4219366;28;20693;-76
2023/07/27 07:07:22;;;;;;;4.17;2.50;;;16.70;99.90;;;;;;4215471;28;20230;-76
2023/07/27 07:09:24;;;;;;;4.03;2.17;;;16.70;99.90;;;;;;4220523;28;20285;-74
2023/07/27 07:11:26;;;;;;;2.70;2.03;;;16.80;99.90;;;;;;4221067;28;20213;-73
2023/07/27 07:13:29;;;;;;;5.13;2.40;;;16.80;99.90;;;;;;4222559;28;20304;-74
2023/07/27 07:15:32;;;;;;;3.23;2.03;;;16.90;99.90;;;;;;4219870;28;20252;-74
2023/07/27 07:17:34;;;;;;;4.23;2.47;;;17.00;99.90;;;;;;4216601;28;20240;-74
2023/07/27 07:19:36;;;;;;;6.43;3.67;;;17.00;99.90;;;;;;4224172;28;20286;-74
2023/07/27 07:21:38;;;;;;;5.47;2.90;;;17.10;99.90;;;;;;4216875;28;20237;-74
2023/07/27 07:23:40;;;;;;;3.27;2.20;;;17.30;99.90;;;;;;4221635;28;20202;-74
2023/07/27 07:25:42;;;;;;;3.53;1.90;;;17.40;99.90;;;;;;4219852;28;20250;-76
2023/07/27 07:27:43;;;;;;;4.00;2.00;;;17.50;99.90;;;;;;4220181;28;20309;-75
2023/07/27 07:29:45;;;;;;;3.40;2.17;;;17.60;99.90;;;;;;4221136;28;20302;-74
2023/07/27 07:31:49;;;;;;;4.60;2.27;;;17.70;99.90;;;;;;4218962;28;21292;-75
2023/07/27 07:33:51;;;;;;;5.90;2.30;;;17.70;99.90;;;;;;4218653;28;20595;-75
2023/07/27 07:35:52;;;;;;;3.47;2.00;;;17.80;99.90;;;;;;4214137;28;20326;-75
2023/07/27 07:37:54;;;;;;;4.07;2.00;;;17.80;99.90;;;;;;4219041;28;20207;-75
2023/07/27 07:39:56;;;;;;;3.90;2.13;;;17.90;99.90;;;;;;4219953;28;20211;-76
2023/07/27 07:41:59;;;;;;;4.47;2.50;;;17.90;99.90;;;;;;4217903;28;20290;-77
2023/07/27 07:44:00;;;;;;;2.97;1.93;;;18.00;99.90;;;;;;4218515;28;20212;-77
2023/07/27 07:46:01;;;;;;;3.17;1.83;;;18.10;99.90;;;;;;4215315;28;20326;-77
2023/07/27 07:48:05;;;;;;;5.83;2.10;;;18.20;99.90;;;;;;4220642;28;20305;-76
2023/07/27 07:50:08;;;;;;;3.93;1.97;;;18.20;99.90;;;;;;4218883;28;20752;-78
2023/07/27 07:52:13;;;;;;;3.23;2.20;;;18.30;99.90;;;;;;4218700;28;20230;-77
2023/07/27 07:54:15;;;;;;;5.07;2.27;;;18.30;99.90;;;;;;4218845;28;20207;-75
2023/07/27 07:56:18;;;;;;;2.80;1.97;;;18.40;99.90;;;;;;4218787;28;20285;-77
2023/07/27 07:58:20;;;;;;;2.90;2.03;;;18.50;99.90;;;;;;4219199;28;20231;-77
2023/07/27 08:00:22;;;;;;;3.37;1.90;;;18.50;99.90;;;;;;4218733;28;20211;-77
2023/07/27 08:02:24;;;;;;;2.33;1.83;;;18.60;99.90;;;;;;4216049;28;20228;-75
2023/07/27 08:04:30;;;;;;;3.27;2.20;;;18.70;99.90;;;;;;4220380;28;20213;-77
2023/07/27 08:06:32;;;;;;;4.13;2.30;;;18.80;99.90;;;;;;4217934;28;20701;-77
2023/07/27 08:08:35;;;;;;;2.80;2.10;;;18.90;99.90;;;;;;4215880;28;20263;-77
2023/07/27 08:10:36;;;;;;;4.57;2.33;;;18.90;99.90;;;;;;4219400;28;20262;-77
2023/07/27 08:12:38;;;;;;;3.47;2.10;;;19.10;99.90;;;;;;4219022;28;20997;-77
2023/07/27 08:14:40;;;;;;;3.43;2.30;;;19.10;99.90;;;;;;4221655;28;20296;-76
2023/07/27 08:16:42;;;;;;;3.47;2.10;;;19.20;99.90;;;;;;4218048;28;20269;-76
2023/07/27 08:18:44;;;;;;;7.30;2.60;;;19.30;99.90;;;;;;4217281;28;20261;-76
2023/07/27 08:20:57;;;;;;;4.10;2.47;;;19.40;99.90;;;;;;4220995;28;20208;-76
2023/07/27 08:22:59;;;;;;;3.70;2.37;;;19.50;99.90;;;;;;4216426;28;20208;-78
2023/07/27 08:25:01;;;;;;;6.93;2.10;;;19.50;99.90;;;;;;4220780;28;20295;-78
2023/07/27 08:27:05;;;;;;;3.10;2.20;;;19.60;99.90;;;;;;4217914;28;20239;-78
2023/07/27 08:29:06;;;;;;;3.67;1.90;;;19.70;99.90;;;;;;4210233;28;20260;-78
2023/07/27 08:31:08;;;;;;;5.33;1.83;;;19.70;99.90;;;;;;4218536;28;20212;-76
2023/07/27 08:33:12;;;;;;;3.57;2.10;;;19.70;99.90;;;;;;4216455;28;20261;-76
2023/07/27 08:35:14;;;;;;;2.90;1.73;;;19.80;99.90;;;;;;4222078;28;20205;-76
2023/07/27 08:37:20;;;;;;;4.50;2.13;;;19.90;99.90;;;;;;4215887;28;20307;-76
2023/07/27 08:39:22;;;;;;;6.97;2.10;;;19.90;99.90;;;;;;4219426;28;20268;-77
2023/07/27 08:41:24;;;;;;;2.33;2.00;;;20.00;99.90;;;;;;4218958;28;20213;-77
2023/07/27 08:43:26;;;;;;;4.53;1.87;;;20.00;99.90;;;;;;4221315;28;20216;-75
2023/07/27 08:45:30;;;;;;;4.03;2.00;;;20.10;99.90;;;;;;4219681;28;20205;-75
2023/07/27 08:47:32;;;;;;;2.80;2.00;;;20.20;99.90;;;;;;4221578;28;20857;-75
2023/07/27 08:49:35;;;;;;;4.40;2.10;;;20.30;99.90;;;;;;4228767;28;20314;-75
2023/07/27 08:51:39;;;;;;;4.10;2.20;;;20.30;99.90;;;;;;4220291;28;20252;-74
2023/07/27 08:53:44;;;;;;;2.47;1.93;;;20.40;99.90;;;;;;4224448;28;20642;-74
2023/07/27 08:55:46;;;;;;;9.57;2.40;;;20.40;99.90;;;;;;4219855;28;20231;-74
2023/07/27 08:57:48;;;;;;;5.73;2.67;;;20.40;99.90;;;;;;4217268;28;20659;-74
2023/07/27 08:59:50;;;;;;;2.87;2.00;;;20.40;99.90;;;;;;4223008;28;20291;-77
2023/07/27 09:01:52;;;;;;;4.67;2.07;;;20.30;99.90;;;;;;4226649;28;20200;-77
2023/07/27 09:03:54;;;;;;;3.90;2.40;;;20.30;99.90;;;;;;4223929;28;20216;-77
2023/07/27 09:06:00;;;;;;;4.67;2.40;;;20.30;99.90;;;;;;4218087;28;20719;-77
2023/07/27 09:08:06;;;;;;;4.73;2.00;;;20.30;99.90;;;;;;4221566;28;20339;-77
2023/07/27 09:10:10;;;;;;;4.97;2.23;;;20.40;99.90;;;;;;4225752;28;20230;-77
2023/07/27 09:12:18;;;;;;;4.80;2.33;;;20.40;99.90;;;;;;4222435;28;20927;-76
2023/07/27 09:14:20;;;;;;;4.30;1.93;;;20.40;99.90;;;;;;4221939;28;20203;-77
2023/07/27 09:16:23;;;;;;;3.00;1.83;;;20.40;99.90;;;;;;4221640;28;20240;-76
2023/07/27 09:18:27;;;;;;;2.80;1.70;;;20.50;99.90;;;;;;4220866;28;20292;-76
2023/07/27 09:20:31;;;;;;;3.17;1.90;;;20.50;99.90;;;;;;4221027;28;20587;-76
2023/07/27 09:22:35;;;;;;;4.17;2.10;;;20.50;99.90;;;;;;4215677;28;20266;-76
2023/07/27 09:24:37;;;;;;;2.40;1.67;;;20.50;99.90;;;;;;4218903;28;20623;-76
2023/07/27 09:26:47;;;;;;;4.23;1.97;;;20.50;99.90;;;;;;4222568;28;20228;-75
2023/07/27 09:28:49;;;;;;;4.10;2.03;;;20.40;99.90;;;;;;4223908;28;20324;-77
2023/07/27 09:30:51;;;;;;;3.83;2.00;;;20.50;99.90;;;;;;4220401;28;20655;-76
2023/07/27 09:32:54;;;;;;;5.90;2.17;;;20.50;99.90;;;;;;4220636;28;20332;-76
2023/07/27 09:34:56;;;;;;;4.03;2.00;;;20.50;99.90;;;;;;4221358;28;20214;-76
2023/07/27 09:37:02;;;;;;;4.13;2.07;;;20.60;99.90;;;;;;4222486;28;20236;-76
2023/07/27 09:39:07;;;;;;;4.07;2.30;;;20.50;99.90;;;;;;4219272;28;20235;-77
2023/07/27 09:41:11;;;;;;;5.70;2.00;;;20.50;99.90;;;;;;4219504;28;20301;-76
2023/07/27 09:43:15;;;;;;;4.53;2.10;;;20.30;99.90;;;;;;4221401;28;20216;-76
2023/07/27 09:45:17;;;;;;;3.63;2.20;;;20.20;99.90;;;;;;4216632;28;20292;-76
2023/07/27 09:47:19;;;;;;;4.87;1.93;;;20.10;99.90;;;;;;4220147;28;20236;-76
2023/07/27 09:49:22;;;;;;;5.07;1.87;;;19.90;99.90;;;;;;4218126;28;20755;-76
2023/07/27 09:51:26;;;;;;;3.27;2.03;;;19.80;99.90;;;;;;4220441;28;20219;-76
2023/07/27 09:53:30;;;;;;;4.27;2.00;;;19.60;99.90;;;;;;4219645;28;20723;-76
2023/07/27 09:55:33;;;;;;;5.67;2.23;;;19.40;99.90;;;;;;4218141;28;20211;-76
2023/07/27 09:57:35;;;;;;;3.73;2.27;;;19.30;99.90;;;;;;4217987;28;20235;-76
2023/07/27 09:59:38;;;;;;;4.23;2.20;;;19.30;99.90;;;;;;4218783;28;20295;-76
2023/07/27 10:01:40;;;;;;;3.70;2.20;;;19.30;99.90;;;;;;4218116;28;20829;-76
2023/07/27 10:03:44;;;;;;;3.80;1.90;;;19.30;99.90;;;;;;4219616;28;20260;-76
2023/07/27 10:05:47;;;;;;;3.43;1.90;;;19.40;99.90;;;;;;4220304;28;20300;-76
2023/07/27 10:07:49;;;;;;;4.60;2.27;;;19.40;99.90;;;;;;4218880;28;20693;-76
2023/07/27 10:10:27;;;;;;;3.70;2.10;;;19.50;99.90;;;;;;4221369;28;20239;-76
2023/07/27 10:12:32;;;;;;;4.93;2.50;;;19.50;99.90;;;;;;4222193;28;21007;-76
2023/07/27 10:14:35;;;;;;;5.43;2.20;;;19.60;99.90;;;;;;4219653;28;20208;-76
2023/07/27 10:16:40;;;;;;;5.70;1.90;;;19.60;99.90;;;;;;4216420;28;20267;-76
2023/07/27 10:18:45;;;;;;;3.87;2.17;;;19.60;99.90;;;;;;4219554;28;20304;-76
2023/07/27 10:20:47;;;;;;;4.40;2.33;;;19.60;99.90;;;;;;4219226;28;20216;-76
2023/07/27 10:22:50;;;;;;;3.80;2.00;;;19.50;99.90;;;;;;4221416;28;20308;-76
2023/07/27 10:24:53;;;;;;;3.43;2.20;;;19.40;99.90;;;;;;4215536;28;20204;-76
2023/07/27 10:26:55;;;;;;;3.37;1.97;;;19.30;99.90;;;;;;4220226;28;20320;-76
2023/07/27 10:28:56;;;;;;;3.17;2.07;;;19.30;99.90;;;;;;4218650;28;20220;-76
2023/07/27 10:31:21;;;;;;;4.50;2.10;;;19.20;99.90;;;;;;4219941;28;20297;-76
2023/07/27 10:33:26;;;;;;;3.30;2.20;;;19.10;99.90;;;;;;4208067;28;20217;-76
2023/07/27 10:35:31;;;;;;;3.30;2.30;;;19.00;99.90;;;;;;4218979;28;20642;-76
2023/07/27 10:37:52;;;;;;;3.80;2.07;;;18.80;99.90;;;;;;4219337;28;20296;-76
2023/07/27 10:39:56;;;;;;;5.60;2.40;;;18.70;99.90;;;;;;4218869;28;20234;-76
2023/07/27 10:41:59;;;;;;;5.83;2.50;;;18.70;99.90;;;;;;4215857;28;20219;-76